sensor_id;sensor_type;location;lat;lon;timestamp;P1;durP1;ratioP1;P2;durP2;ratioP2
12910;SDS011;6523;49.758;6.120;2023-05-10T00:00:50;4.33;;;3.00;;
12910;SDS011;6523;49.758;6.120;2023-05-10T00:03:16;4.40;;;4.00;;
12910;SDS011;6523;49.758;6.120;2023-05-10T00:05:42;5.00;;;4.03;;
12910;SDS011;6523;49.758;6.120;2023-05-10T00:08:07;3.90;;;3.60;;
12910;SDS011;6523;49.758;6.120;2023-05-10T00:10:33;4.10;;;3.70;;
12910;SDS011;6523;49.758;6.120;2023-05-10T00:12:58;4.10;;;3.67;;
12910;SDS011;6523;49.758;6.120;2023-05-10T00:15:24;4.00;;;3.60;;
12910;SDS011;6523;49.758;6.120;2023-05-10T00:17:49;3.80;;;3.40;;
12910;SDS011;6523;49.758;6.120;2023-05-10T00:20:15;3.70;;;3.40;;
12910;SDS011;6523;49.758;6.120;2023-05-10T00:22:41;3.73;;;3.30;;
12910;SDS011;6523;49.758;6.120;2023-05-10T00:25:06;4.27;;;3.87;;
12910;SDS011;6523;49.758;6.120;2023-05-10T00:27:33;4.17;;;3.53;;
12910;SDS011;6523;49.758;6.120;2023-05-10T00:29:58;4.87;;;4.13;;
12910;SDS011;6523;49.758;6.120;2023-05-10T00:32:24;4.53;;;3.70;;
12910;SDS011;6523;49.758;6.120;2023-05-10T00:34:49;6.07;;;4.33;;
12910;SDS011;6523;49.758;6.120;2023-05-10T00:37:15;4.40;;;4.00;;
12910;SDS011;6523;49.758;6.120;2023-05-10T00:39:41;5.33;;;4.17;;
12910;SDS011;6523;49.758;6.120;2023-05-10T00:42:06;5.80;;;4.37;;
12910;SDS011;6523;49.758;6.120;2023-05-10T00:44:32;7.70;;;5.17;;
12910;SDS011;6523;49.758;6.120;2023-05-10T00:46:57;6.63;;;5.10;;
12910;SDS011;6523;49.758;6.120;2023-05-10T00:49:24;9.10;;;5.40;;
12910;SDS011;6523;49.758;6.120;2023-05-10T00:51:50;6.00;;;5.17;;
12910;SDS011;6523;49.758;6.120;2023-05-10T00:54:15;6.50;;;5.07;;
12910;SDS011;6523;49.758;6.120;2023-05-10T00:56:41;9.93;;;5.60;;
12910;SDS011;6523;49.758;6.120;2023-05-10T00:59:08;5.30;;;4.73;;
12910;SDS011;6523;49.758;6.120;2023-05-10T01:01:34;8.73;;;5.47;;
12910;SDS011;6523;49.758;6.120;2023-05-10T01:04:00;6.37;;;5.30;;
12910;SDS011;6523;49.758;6.120;2023-05-10T01:06:26;7.47;;;6.40;;
12910;SDS011;6523;49.758;6.120;2023-05-10T01:08:52;8.00;;;5.10;;
12910;SDS011;6523;49.758;6.120;2023-05-10T01:11:18;6.17;;;4.67;;
12910;SDS011;6523;49.758;6.120;2023-05-10T01:13:44;5.50;;;4.77;;
12910;SDS011;6523;49.758;6.120;2023-05-10T01:16:17;5.73;;;5.10;;
12910;SDS011;6523;49.758;6.120;2023-05-10T01:18:42;5.30;;;4.80;;
12910;SDS011;6523;49.758;6.120;2023-05-10T01:21:31;6.20;;;4.93;;
12910;SDS011;6523;49.758;6.120;2023-05-10T01:32:51;5.67;;;4.60;;
12910;SDS011;6523;49.758;6.120;2023-05-10T01:37:59;6.27;;;4.50;;
12910;SDS011;6523;49.758;6.120;2023-05-10T01:40:31;4.50;;;4.10;;
12910;SDS011;6523;49.758;6.120;2023-05-10T01:43:03;5.57;;;3.87;;
12910;SDS011;6523;49.758;6.120;2023-05-10T01:45:39;7.20;;;4.50;;
12910;SDS011;6523;49.758;6.120;2023-05-10T01:48:12;5.03;;;4.40;;
12910;SDS011;6523;49.758;6.120;2023-05-10T01:50:41;5.43;;;4.23;;
12910;SDS011;6523;49.758;6.120;2023-05-10T01:53:09;6.03;;;4.20;;
12910;SDS011;6523;49.758;6.120;2023-05-10T01:55:42;5.83;;;4.40;;
12910;SDS011;6523;49.758;6.120;2023-05-10T01:58:31;6.90;;;4.20;;
12910;SDS011;6523;49.758;6.120;2023-05-10T02:00:59;8.77;;;4.30;;
12910;SDS011;6523;49.758;6.120;2023-05-10T02:03:28;7.03;;;4.70;;
12910;SDS011;6523;49.758;6.120;2023-05-10T02:05:55;6.20;;;4.40;;
12910;SDS011;6523;49.758;6.120;2023-05-10T02:08:22;4.43;;;3.90;;
12910;SDS011;6523;49.758;6.120;2023-05-10T02:10:49;4.27;;;3.83;;
12910;SDS011;6523;49.758;6.120;2023-05-10T02:13:17;6.10;;;4.63;;
12910;SDS011;6523;49.758;6.120;2023-05-10T02:15:45;11.00;;;5.37;;
12910;SDS011;6523;49.758;6.120;2023-05-10T02:18:12;5.73;;;4.47;;
12910;SDS011;6523;49.758;6.120;2023-05-10T02:20:40;8.37;;;5.00;;
12910;SDS011;6523;49.758;6.120;2023-05-10T02:23:06;6.70;;;4.73;;
12910;SDS011;6523;49.758;6.120;2023-05-10T02:25:33;7.73;;;5.50;;
12910;SDS011;6523;49.758;6.120;2023-05-10T02:28:01;7.67;;;5.50;;
12910;SDS011;6523;49.758;6.120;2023-05-10T02:30:29;6.50;;;4.87;;
12910;SDS011;6523;49.758;6.120;2023-05-10T02:32:57;9.23;;;5.00;;
12910;SDS011;6523;49.758;6.120;2023-05-10T02:35:24;4.73;;;4.33;;
12910;SDS011;6523;49.758;6.120;2023-05-10T02:37:51;7.87;;;5.50;;
12910;SDS011;6523;49.758;6.120;2023-05-10T02:40:18;7.07;;;4.93;;
12910;SDS011;6523;49.758;6.120;2023-05-10T02:42:46;7.27;;;5.27;;
12910;SDS011;6523;49.758;6.120;2023-05-10T02:45:15;6.83;;;5.17;;
12910;SDS011;6523;49.758;6.120;2023-05-10T02:47:44;8.83;;;4.97;;
12910;SDS011;6523;49.758;6.120;2023-05-10T02:50:10;7.63;;;6.00;;
12910;SDS011;6523;49.758;6.120;2023-05-10T02:52:39;7.47;;;5.13;;
12910;SDS011;6523;49.758;6.120;2023-05-10T02:55:11;7.63;;;5.33;;
12910;SDS011;6523;49.758;6.120;2023-05-10T02:57:41;8.00;;;4.90;;
12910;SDS011;6523;49.758;6.120;2023-05-10T03:00:13;7.73;;;5.60;;
12910;SDS011;6523;49.758;6.120;2023-05-10T03:02:39;10.47;;;5.87;;
12910;SDS011;6523;49.758;6.120;2023-05-10T03:05:05;7.97;;;5.40;;
12910;SDS011;6523;49.758;6.120;2023-05-10T03:07:31;7.90;;;5.50;;
12910;SDS011;6523;49.758;6.120;2023-05-10T03:09:58;5.93;;;4.97;;
12910;SDS011;6523;49.758;6.120;2023-05-10T03:12:31;6.37;;;4.70;;
12910;SDS011;6523;49.758;6.120;2023-05-10T03:15:04;6.83;;;4.40;;
12910;SDS011;6523;49.758;6.120;2023-05-10T03:20:33;6.57;;;4.20;;
12910;SDS011;6523;49.758;6.120;2023-05-10T03:23:07;3.90;;;3.50;;
12910;SDS011;6523;49.758;6.120;2023-05-10T03:25:51;4.17;;;2.90;;
12910;SDS011;6523;49.758;6.120;2023-05-10T03:28:18;3.87;;;3.03;;
12910;SDS011;6523;49.758;6.120;2023-05-10T03:30:45;3.17;;;2.87;;
12910;SDS011;6523;49.758;6.120;2023-05-10T03:33:11;4.03;;;2.83;;
12910;SDS011;6523;49.758;6.120;2023-05-10T03:35:40;2.33;;;2.13;;
12910;SDS011;6523;49.758;6.120;2023-05-10T03:38:05;2.27;;;2.03;;
12910;SDS011;6523;49.758;6.120;2023-05-10T03:40:31;3.03;;;1.90;;
12910;SDS011;6523;49.758;6.120;2023-05-10T03:43:00;2.43;;;1.50;;
12910;SDS011;6523;49.758;6.120;2023-05-10T03:45:26;2.70;;;1.60;;
12910;SDS011;6523;49.758;6.120;2023-05-10T03:47:51;1.77;;;1.67;;
12910;SDS011;6523;49.758;6.120;2023-05-10T03:50:17;2.00;;;1.50;;
12910;SDS011;6523;49.758;6.120;2023-05-10T03:52:43;1.40;;;1.23;;
12910;SDS011;6523;49.758;6.120;2023-05-10T03:55:09;2.50;;;1.17;;
12910;SDS011;6523;49.758;6.120;2023-05-10T03:57:35;1.83;;;1.00;;
12910;SDS011;6523;49.758;6.120;2023-05-10T04:00:01;1.00;;;0.73;;
12910;SDS011;6523;49.758;6.120;2023-05-10T04:02:27;1.80;;;0.80;;
12910;SDS011;6523;49.758;6.120;2023-05-10T04:04:53;2.50;;;1.00;;
12910;SDS011;6523;49.758;6.120;2023-05-10T04:07:18;1.83;;;0.80;;
12910;SDS011;6523;49.758;6.120;2023-05-10T04:09:44;0.60;;;0.60;;
12910;SDS011;6523;49.758;6.120;2023-05-10T04:12:09;2.57;;;0.77;;
12910;SDS011;6523;49.758;6.120;2023-05-10T04:14:35;0.80;;;0.77;;
12910;SDS011;6523;49.758;6.120;2023-05-10T04:17:00;0.60;;;0.60;;
12910;SDS011;6523;49.758;6.120;2023-05-10T04:19:29;1.00;;;0.90;;
12910;SDS011;6523;49.758;6.120;2023-05-10T04:21:55;1.90;;;0.80;;
12910;SDS011;6523;49.758;6.120;2023-05-10T04:24:21;1.20;;;0.70;;
12910;SDS011;6523;49.758;6.120;2023-05-10T04:26:47;1.43;;;0.90;;
12910;SDS011;6523;49.758;6.120;2023-05-10T04:29:12;0.97;;;0.90;;
12910;SDS011;6523;49.758;6.120;2023-05-10T04:31:38;1.50;;;0.97;;
12910;SDS011;6523;49.758;6.120;2023-05-10T04:34:03;2.60;;;1.30;;
12910;SDS011;6523;49.758;6.120;2023-05-10T04:36:29;1.00;;;0.80;;
12910;SDS011;6523;49.758;6.120;2023-05-10T04:38:54;0.80;;;0.80;;
12910;SDS011;6523;49.758;6.120;2023-05-10T04:41:20;1.17;;;1.00;;
12910;SDS011;6523;49.758;6.120;2023-05-10T04:43:45;2.20;;;0.97;;
12910;SDS011;6523;49.758;6.120;2023-05-10T04:46:13;1.70;;;1.00;;
12910;SDS011;6523;49.758;6.120;2023-05-10T04:48:39;0.97;;;0.80;;
12910;SDS011;6523;49.758;6.120;2023-05-10T04:51:04;1.57;;;0.93;;
12910;SDS011;6523;49.758;6.120;2023-05-10T04:53:31;0.90;;;0.80;;
12910;SDS011;6523;49.758;6.120;2023-05-10T04:55:57;0.83;;;0.83;;
12910;SDS011;6523;49.758;6.120;2023-05-10T04:58:22;0.97;;;0.70;;
12910;SDS011;6523;49.758;6.120;2023-05-10T05:00:48;1.10;;;1.00;;
12910;SDS011;6523;49.758;6.120;2023-05-10T05:03:13;2.33;;;0.90;;
12910;SDS011;6523;49.758;6.120;2023-05-10T05:05:39;0.93;;;0.90;;
12910;SDS011;6523;49.758;6.120;2023-05-10T05:08:05;1.90;;;0.97;;
12910;SDS011;6523;49.758;6.120;2023-05-10T05:10:30;1.27;;;0.90;;
12910;SDS011;6523;49.758;6.120;2023-05-10T05:12:56;0.90;;;0.80;;
12910;SDS011;6523;49.758;6.120;2023-05-10T05:15:21;0.80;;;0.80;;
12910;SDS011;6523;49.758;6.120;2023-05-10T05:17:47;0.93;;;0.70;;
12910;SDS011;6523;49.758;6.120;2023-05-10T05:20:12;1.40;;;0.67;;
12910;SDS011;6523;49.758;6.120;2023-05-10T05:22:38;0.93;;;0.70;;
12910;SDS011;6523;49.758;6.120;2023-05-10T05:25:04;1.17;;;0.80;;
12910;SDS011;6523;49.758;6.120;2023-05-10T05:27:30;2.33;;;0.90;;
12910;SDS011;6523;49.758;6.120;2023-05-10T05:29:56;0.90;;;0.70;;
12910;SDS011;6523;49.758;6.120;2023-05-10T05:32:22;1.77;;;0.70;;
12910;SDS011;6523;49.758;6.120;2023-05-10T05:34:48;0.70;;;0.70;;
12910;SDS011;6523;49.758;6.120;2023-05-10T05:37:18;0.83;;;0.80;;
12910;SDS011;6523;49.758;6.120;2023-05-10T05:39:45;0.93;;;0.73;;
12910;SDS011;6523;49.758;6.120;2023-05-10T05:42:11;2.00;;;0.77;;
12910;SDS011;6523;49.758;6.120;2023-05-10T05:44:37;1.10;;;0.70;;
12910;SDS011;6523;49.758;6.120;2023-05-10T05:47:03;0.90;;;0.80;;
12910;SDS011;6523;49.758;6.120;2023-05-10T05:49:29;1.57;;;0.63;;
12910;SDS011;6523;49.758;6.120;2023-05-10T05:51:58;3.00;;;0.90;;
12910;SDS011;6523;49.758;6.120;2023-05-10T05:54:27;1.63;;;0.80;;
12910;SDS011;6523;49.758;6.120;2023-05-10T05:56:56;1.37;;;0.80;;
12910;SDS011;6523;49.758;6.120;2023-05-10T05:59:22;0.60;;;0.60;;
12910;SDS011;6523;49.758;6.120;2023-05-10T06:01:48;1.07;;;1.03;;
12910;SDS011;6523;49.758;6.120;2023-05-10T06:04:14;0.73;;;0.73;;
12910;SDS011;6523;49.758;6.120;2023-05-10T06:06:40;0.50;;;0.50;;
12910;SDS011;6523;49.758;6.120;2023-05-10T06:09:07;1.97;;;0.80;;
12910;SDS011;6523;49.758;6.120;2023-05-10T06:11:33;1.30;;;0.60;;
12910;SDS011;6523;49.758;6.120;2023-05-10T06:13:58;0.50;;;0.50;;
12910;SDS011;6523;49.758;6.120;2023-05-10T06:16:24;1.17;;;0.60;;
12910;SDS011;6523;49.758;6.120;2023-05-10T06:18:49;2.77;;;0.77;;
12910;SDS011;6523;49.758;6.120;2023-05-10T06:21:16;1.23;;;0.60;;
12910;SDS011;6523;49.758;6.120;2023-05-10T06:23:41;2.30;;;0.77;;
12910;SDS011;6523;49.758;6.120;2023-05-10T06:26:07;0.90;;;0.70;;
12910;SDS011;6523;49.758;6.120;2023-05-10T06:28:32;2.37;;;0.87;;
12910;SDS011;6523;49.758;6.120;2023-05-10T06:30:58;2.30;;;0.80;;
12910;SDS011;6523;49.758;6.120;2023-05-10T06:33:24;2.37;;;0.80;;
12910;SDS011;6523;49.758;6.120;2023-05-10T06:35:50;0.73;;;0.73;;
12910;SDS011;6523;49.758;6.120;2023-05-10T06:38:16;1.20;;;0.70;;
12910;SDS011;6523;49.758;6.120;2023-05-10T06:40:42;1.07;;;0.80;;
12910;SDS011;6523;49.758;6.120;2023-05-10T06:43:08;0.93;;;0.70;;
12910;SDS011;6523;49.758;6.120;2023-05-10T06:45:33;0.83;;;0.80;;
12910;SDS011;6523;49.758;6.120;2023-05-10T06:47:59;0.60;;;0.60;;
12910;SDS011;6523;49.758;6.120;2023-05-10T06:50:24;0.90;;;0.90;;
12910;SDS011;6523;49.758;6.120;2023-05-10T06:52:50;0.93;;;0.70;;
12910;SDS011;6523;49.758;6.120;2023-05-10T06:55:16;0.70;;;0.70;;
12910;SDS011;6523;49.758;6.120;2023-05-10T06:57:42;1.17;;;0.80;;
12910;SDS011;6523;49.758;6.120;2023-05-10T07:00:07;1.23;;;0.90;;
12910;SDS011;6523;49.758;6.120;2023-05-10T07:02:34;3.03;;;0.90;;
12910;SDS011;6523;49.758;6.120;2023-05-10T07:05:00;1.60;;;0.90;;
12910;SDS011;6523;49.758;6.120;2023-05-10T07:07:26;1.10;;;0.90;;
12910;SDS011;6523;49.758;6.120;2023-05-10T07:09:51;0.80;;;0.80;;
12910;SDS011;6523;49.758;6.120;2023-05-10T07:12:17;0.80;;;0.73;;
12910;SDS011;6523;49.758;6.120;2023-05-10T07:14:42;1.60;;;0.97;;
12910;SDS011;6523;49.758;6.120;2023-05-10T07:17:08;1.27;;;1.07;;
12910;SDS011;6523;49.758;6.120;2023-05-10T07:19:34;1.07;;;0.90;;
12910;SDS011;6523;49.758;6.120;2023-05-10T07:22:00;1.97;;;1.00;;
12910;SDS011;6523;49.758;6.120;2023-05-10T07:24:25;2.10;;;1.00;;
12910;SDS011;6523;49.758;6.120;2023-05-10T07:26:51;1.53;;;0.90;;
12910;SDS011;6523;49.758;6.120;2023-05-10T07:29:17;1.60;;;1.10;;
12910;SDS011;6523;49.758;6.120;2023-05-10T07:31:42;1.10;;;1.00;;
12910;SDS011;6523;49.758;6.120;2023-05-10T07:34:08;2.03;;;1.40;;
12910;SDS011;6523;49.758;6.120;2023-05-10T07:36:34;1.67;;;1.27;;
12910;SDS011;6523;49.758;6.120;2023-05-10T07:38:59;2.13;;;1.53;;
12910;SDS011;6523;49.758;6.120;2023-05-10T07:41:25;1.73;;;1.63;;
12910;SDS011;6523;49.758;6.120;2023-05-10T07:43:51;1.30;;;1.20;;
12910;SDS011;6523;49.758;6.120;2023-05-10T07:46:17;2.23;;;1.20;;
12910;SDS011;6523;49.758;6.120;2023-05-10T07:48:44;2.13;;;1.37;;
12910;SDS011;6523;49.758;6.120;2023-05-10T07:51:09;2.37;;;1.20;;
12910;SDS011;6523;49.758;6.120;2023-05-10T07:53:35;1.70;;;1.30;;
12910;SDS011;6523;49.758;6.120;2023-05-10T07:56:19;1.47;;;1.20;;
12910;SDS011;6523;49.758;6.120;2023-05-10T07:58:46;2.33;;;1.40;;
12910;SDS011;6523;49.758;6.120;2023-05-10T08:01:11;1.97;;;1.20;;
12910;SDS011;6523;49.758;6.120;2023-05-10T08:03:37;3.80;;;1.20;;
12910;SDS011;6523;49.758;6.120;2023-05-10T08:06:02;2.73;;;1.27;;
12910;SDS011;6523;49.758;6.120;2023-05-10T08:08:28;1.10;;;1.00;;
12910;SDS011;6523;49.758;6.120;2023-05-10T08:10:54;0.97;;;0.87;;
12910;SDS011;6523;49.758;6.120;2023-05-10T08:13:19;1.10;;;1.00;;
12910;SDS011;6523;49.758;6.120;2023-05-10T08:15:46;1.20;;;1.10;;
12910;SDS011;6523;49.758;6.120;2023-05-10T08:18:11;1.00;;;0.90;;
12910;SDS011;6523;49.758;6.120;2023-05-10T08:20:37;0.87;;;0.80;;
12910;SDS011;6523;49.758;6.120;2023-05-10T08:23:02;0.90;;;0.80;;
12910;SDS011;6523;49.758;6.120;2023-05-10T08:25:28;0.80;;;0.80;;
12910;SDS011;6523;49.758;6.120;2023-05-10T08:27:53;2.00;;;0.80;;
12910;SDS011;6523;49.758;6.120;2023-05-10T08:30:19;2.23;;;1.07;;
12910;SDS011;6523;49.758;6.120;2023-05-10T08:32:44;0.67;;;0.67;;
12910;SDS011;6523;49.758;6.120;2023-05-10T08:35:10;0.73;;;0.73;;
12910;SDS011;6523;49.758;6.120;2023-05-10T08:37:35;0.90;;;0.90;;
12910;SDS011;6523;49.758;6.120;2023-05-10T08:40:01;2.17;;;0.87;;
12910;SDS011;6523;49.758;6.120;2023-05-10T08:42:28;2.37;;;0.83;;
12910;SDS011;6523;49.758;6.120;2023-05-10T08:44:59;0.93;;;0.93;;
12910;SDS011;6523;49.758;6.120;2023-05-10T08:47:27;2.70;;;0.83;;
12910;SDS011;6523;49.758;6.120;2023-05-10T08:49:52;1.03;;;1.03;;
12910;SDS011;6523;49.758;6.120;2023-05-10T08:52:19;0.97;;;0.90;;
12910;SDS011;6523;49.758;6.120;2023-05-10T08:54:46;1.03;;;0.83;;
12910;SDS011;6523;49.758;6.120;2023-05-10T08:57:12;1.17;;;0.97;;
12910;SDS011;6523;49.758;6.120;2023-05-10T08:59:38;1.27;;;1.20;;
12910;SDS011;6523;49.758;6.120;2023-05-10T09:02:05;1.23;;;1.13;;
12910;SDS011;6523;49.758;6.120;2023-05-10T09:04:31;2.17;;;1.30;;
12910;SDS011;6523;49.758;6.120;2023-05-10T09:06:56;1.43;;;1.10;;
12910;SDS011;6523;49.758;6.120;2023-05-10T09:09:22;3.70;;;1.10;;
12910;SDS011;6523;49.758;6.120;2023-05-10T09:11:50;1.63;;;1.23;;
12910;SDS011;6523;49.758;6.120;2023-05-10T09:14:16;2.10;;;1.30;;
12910;SDS011;6523;49.758;6.120;2023-05-10T09:16:43;1.50;;;1.40;;
12910;SDS011;6523;49.758;6.120;2023-05-10T09:19:09;1.40;;;1.30;;
12910;SDS011;6523;49.758;6.120;2023-05-10T09:21:36;3.33;;;1.40;;
12910;SDS011;6523;49.758;6.120;2023-05-10T09:24:07;2.43;;;1.33;;
12910;SDS011;6523;49.758;6.120;2023-05-10T09:26:33;2.30;;;1.50;;
12910;SDS011;6523;49.758;6.120;2023-05-10T09:29:01;1.60;;;1.50;;
12910;SDS011;6523;49.758;6.120;2023-05-10T09:34:19;2.97;;;2.00;;
12910;SDS011;6523;49.758;6.120;2023-05-10T09:36:56;2.70;;;2.00;;
12910;SDS011;6523;49.758;6.120;2023-05-10T09:39:33;2.90;;;1.93;;
12910;SDS011;6523;49.758;6.120;2023-05-10T09:42:01;3.73;;;1.90;;
12910;SDS011;6523;49.758;6.120;2023-05-10T09:44:28;5.00;;;2.10;;
12910;SDS011;6523;49.758;6.120;2023-05-10T09:46:54;3.23;;;1.67;;
12910;SDS011;6523;49.758;6.120;2023-05-10T09:49:20;3.03;;;1.93;;
12910;SDS011;6523;49.758;6.120;2023-05-10T09:51:47;2.00;;;1.80;;
12910;SDS011;6523;49.758;6.120;2023-05-10T09:54:22;3.27;;;1.97;;
12910;SDS011;6523;49.758;6.120;2023-05-10T09:56:48;5.40;;;2.30;;
12910;SDS011;6523;49.758;6.120;2023-05-10T09:59:14;2.20;;;2.00;;
12910;SDS011;6523;49.758;6.120;2023-05-10T10:01:40;2.77;;;1.90;;
12910;SDS011;6523;49.758;6.120;2023-05-10T10:04:07;3.77;;;2.23;;
12910;SDS011;6523;49.758;6.120;2023-05-10T10:06:37;2.73;;;1.97;;
12910;SDS011;6523;49.758;6.120;2023-05-10T10:09:03;3.90;;;2.10;;
12910;SDS011;6523;49.758;6.120;2023-05-10T10:11:29;3.00;;;2.33;;
12910;SDS011;6523;49.758;6.120;2023-05-10T10:13:54;2.47;;;2.27;;
12910;SDS011;6523;49.758;6.120;2023-05-10T10:16:20;4.90;;;2.80;;
12910;SDS011;6523;49.758;6.120;2023-05-10T10:18:46;3.90;;;2.30;;
12910;SDS011;6523;49.758;6.120;2023-05-10T10:21:13;4.27;;;2.50;;
12910;SDS011;6523;49.758;6.120;2023-05-10T10:23:39;3.40;;;2.07;;
12910;SDS011;6523;49.758;6.120;2023-05-10T10:26:05;6.67;;;2.73;;
12910;SDS011;6523;49.758;6.120;2023-05-10T10:28:49;4.93;;;2.53;;
12910;SDS011;6523;49.758;6.120;2023-05-10T10:31:40;4.70;;;2.30;;
12910;SDS011;6523;49.758;6.120;2023-05-10T10:34:28;3.50;;;2.80;;
12910;SDS011;6523;49.758;6.120;2023-05-10T10:36:55;5.93;;;2.67;;
12910;SDS011;6523;49.758;6.120;2023-05-10T10:39:21;2.80;;;2.00;;
12910;SDS011;6523;49.758;6.120;2023-05-10T10:41:50;7.73;;;2.27;;
12910;SDS011;6523;49.758;6.120;2023-05-10T10:54:56;8.77;;;2.63;;
12910;SDS011;6523;49.758;6.120;2023-05-10T10:57:25;3.27;;;2.20;;
12910;SDS011;6523;49.758;6.120;2023-05-10T10:59:51;7.97;;;2.67;;
12910;SDS011;6523;49.758;6.120;2023-05-10T11:02:43;3.17;;;1.80;;
12910;SDS011;6523;49.758;6.120;2023-05-10T11:10:20;3.63;;;2.20;;
12910;SDS011;6523;49.758;6.120;2023-05-10T11:13:02;3.10;;;2.30;;
12910;SDS011;6523;49.758;6.120;2023-05-10T11:15:37;2.93;;;2.10;;
12910;SDS011;6523;49.758;6.120;2023-05-10T11:18:17;3.53;;;2.00;;
12910;SDS011;6523;49.758;6.120;2023-05-10T11:20:43;5.87;;;2.53;;
12910;SDS011;6523;49.758;6.120;2023-05-10T11:23:12;3.90;;;1.87;;
12910;SDS011;6523;49.758;6.120;2023-05-10T11:25:43;2.87;;;1.90;;
12910;SDS011;6523;49.758;6.120;2023-05-10T11:28:10;3.70;;;1.97;;
12910;SDS011;6523;49.758;6.120;2023-05-10T11:30:40;4.03;;;2.10;;
12910;SDS011;6523;49.758;6.120;2023-05-10T11:33:07;3.93;;;2.40;;
12910;SDS011;6523;49.758;6.120;2023-05-10T11:35:39;2.73;;;1.80;;
12910;SDS011;6523;49.758;6.120;2023-05-10T11:38:06;5.13;;;2.03;;
12910;SDS011;6523;49.758;6.120;2023-05-10T11:40:32;3.70;;;1.60;;
12910;SDS011;6523;49.758;6.120;2023-05-10T11:42:58;3.10;;;2.10;;
12910;SDS011;6523;49.758;6.120;2023-05-10T11:45:24;3.10;;;1.73;;
12910;SDS011;6523;49.758;6.120;2023-05-10T11:47:50;2.50;;;1.67;;
12910;SDS011;6523;49.758;6.120;2023-05-10T11:50:16;2.80;;;1.40;;
12910;SDS011;6523;49.758;6.120;2023-05-10T11:52:42;3.63;;;1.70;;
12910;SDS011;6523;49.758;6.120;2023-05-10T11:55:08;2.60;;;1.70;;
12910;SDS011;6523;49.758;6.120;2023-05-10T11:57:34;2.50;;;1.40;;
12910;SDS011;6523;49.758;6.120;2023-05-10T12:00:00;5.00;;;1.53;;
12910;SDS011;6523;49.758;6.120;2023-05-10T12:02:28;4.40;;;1.60;;
12910;SDS011;6523;49.758;6.120;2023-05-10T12:04:54;2.27;;;1.33;;
12910;SDS011;6523;49.758;6.120;2023-05-10T12:07:21;1.80;;;1.50;;
12910;SDS011;6523;49.758;6.120;2023-05-10T12:10:08;2.77;;;1.83;;
12910;SDS011;6523;49.758;6.120;2023-05-10T12:12:40;2.70;;;1.60;;
12910;SDS011;6523;49.758;6.120;2023-05-10T12:17:44;4.13;;;1.57;;
12910;SDS011;6523;49.758;6.120;2023-05-10T12:20:17;3.17;;;1.40;;
12910;SDS011;6523;49.758;6.120;2023-05-10T12:22:44;4.07;;;1.40;;
12910;SDS011;6523;49.758;6.120;2023-05-10T12:25:21;2.77;;;1.90;;
12910;SDS011;6523;49.758;6.120;2023-05-10T12:27:51;1.73;;;1.20;;
12910;SDS011;6523;49.758;6.120;2023-05-10T12:30:25;2.33;;;1.27;;
12910;SDS011;6523;49.758;6.120;2023-05-10T12:32:52;2.53;;;1.37;;
12910;SDS011;6523;49.758;6.120;2023-05-10T12:35:19;1.67;;;1.10;;
12910;SDS011;6523;49.758;6.120;2023-05-10T12:37:49;1.57;;;1.27;;
12910;SDS011;6523;49.758;6.120;2023-05-10T12:40:15;2.97;;;1.40;;
12910;SDS011;6523;49.758;6.120;2023-05-10T12:42:41;2.37;;;1.20;;
12910;SDS011;6523;49.758;6.120;2023-05-10T12:45:07;2.10;;;1.23;;
12910;SDS011;6523;49.758;6.120;2023-05-10T12:47:33;3.30;;;1.23;;
12910;SDS011;6523;49.758;6.120;2023-05-10T12:49:59;3.13;;;1.20;;
12910;SDS011;6523;49.758;6.120;2023-05-10T12:52:26;2.33;;;1.23;;
12910;SDS011;6523;49.758;6.120;2023-05-10T12:54:53;2.67;;;1.30;;
12910;SDS011;6523;49.758;6.120;2023-05-10T12:57:19;2.63;;;1.13;;
12910;SDS011;6523;49.758;6.120;2023-05-10T12:59:45;3.60;;;1.40;;
12910;SDS011;6523;49.758;6.120;2023-05-10T13:02:11;4.60;;;1.83;;
12910;SDS011;6523;49.758;6.120;2023-05-10T13:04:36;3.20;;;1.10;;
12910;SDS011;6523;49.758;6.120;2023-05-10T13:07:05;2.17;;;1.10;;
12910;SDS011;6523;49.758;6.120;2023-05-10T13:09:31;3.23;;;1.20;;
12910;SDS011;6523;49.758;6.120;2023-05-10T13:11:56;4.87;;;1.50;;
12910;SDS011;6523;49.758;6.120;2023-05-10T13:14:22;2.33;;;1.30;;
12910;SDS011;6523;49.758;6.120;2023-05-10T13:16:47;1.57;;;1.10;;
12910;SDS011;6523;49.758;6.120;2023-05-10T13:19:13;1.30;;;1.20;;
12910;SDS011;6523;49.758;6.120;2023-05-10T13:21:39;1.10;;;1.00;;
12910;SDS011;6523;49.758;6.120;2023-05-10T13:24:06;2.93;;;0.90;;
12910;SDS011;6523;49.758;6.120;2023-05-10T13:26:32;2.87;;;1.30;;
12910;SDS011;6523;49.758;6.120;2023-05-10T13:28:58;2.43;;;0.90;;
12910;SDS011;6523;49.758;6.120;2023-05-10T13:31:23;4.23;;;1.10;;
12910;SDS011;6523;49.758;6.120;2023-05-10T13:33:49;5.23;;;1.00;;
12910;SDS011;6523;49.758;6.120;2023-05-10T13:36:14;1.80;;;1.07;;
12910;SDS011;6523;49.758;6.120;2023-05-10T13:38:40;2.50;;;1.00;;
12910;SDS011;6523;49.758;6.120;2023-05-10T13:41:05;1.00;;;1.00;;
12910;SDS011;6523;49.758;6.120;2023-05-10T13:43:31;3.27;;;0.97;;
12910;SDS011;6523;49.758;6.120;2023-05-10T13:45:57;1.30;;;0.80;;
12910;SDS011;6523;49.758;6.120;2023-05-10T13:48:22;1.63;;;0.90;;
12910;SDS011;6523;49.758;6.120;2023-05-10T13:50:48;1.60;;;0.70;;
12910;SDS011;6523;49.758;6.120;2023-05-10T13:53:13;3.77;;;0.83;;
12910;SDS011;6523;49.758;6.120;2023-05-10T13:55:39;2.00;;;0.80;;
12910;SDS011;6523;49.758;6.120;2023-05-10T13:58:06;1.00;;;0.77;;
12910;SDS011;6523;49.758;6.120;2023-05-10T14:00:31;2.20;;;1.00;;
12910;SDS011;6523;49.758;6.120;2023-05-10T14:02:57;0.97;;;0.90;;
12910;SDS011;6523;49.758;6.120;2023-05-10T14:05:22;1.83;;;1.00;;
12910;SDS011;6523;49.758;6.120;2023-05-10T14:07:48;2.97;;;1.07;;
12910;SDS011;6523;49.758;6.120;2023-05-10T14:10:15;1.33;;;0.93;;
12910;SDS011;6523;49.758;6.120;2023-05-10T14:12:40;2.40;;;0.77;;
12910;SDS011;6523;49.758;6.120;2023-05-10T14:15:06;0.80;;;0.80;;
12910;SDS011;6523;49.758;6.120;2023-05-10T14:17:32;1.23;;;1.13;;
12910;SDS011;6523;49.758;6.120;2023-05-10T14:19:58;1.53;;;0.90;;
12910;SDS011;6523;49.758;6.120;2023-05-10T14:22:23;2.47;;;1.27;;
12910;SDS011;6523;49.758;6.120;2023-05-10T14:24:49;2.07;;;0.90;;
12910;SDS011;6523;49.758;6.120;2023-05-10T14:27:15;1.00;;;0.90;;
12910;SDS011;6523;49.758;6.120;2023-05-10T14:29:41;1.80;;;0.80;;
12910;SDS011;6523;49.758;6.120;2023-05-10T14:32:06;1.77;;;0.77;;
12910;SDS011;6523;49.758;6.120;2023-05-10T14:34:32;2.63;;;0.70;;
12910;SDS011;6523;49.758;6.120;2023-05-10T14:36:58;1.90;;;0.77;;
12910;SDS011;6523;49.758;6.120;2023-05-10T14:39:23;2.13;;;0.80;;
12910;SDS011;6523;49.758;6.120;2023-05-10T14:41:49;1.30;;;0.70;;
12910;SDS011;6523;49.758;6.120;2023-05-10T14:44:16;2.10;;;0.73;;
12910;SDS011;6523;49.758;6.120;2023-05-10T14:46:41;0.50;;;0.50;;
12910;SDS011;6523;49.758;6.120;2023-05-10T14:49:07;1.83;;;1.10;;
12910;SDS011;6523;49.758;6.120;2023-05-10T14:51:33;0.83;;;0.80;;
12910;SDS011;6523;49.758;6.120;2023-05-10T14:53:58;3.20;;;1.00;;
12910;SDS011;6523;49.758;6.120;2023-05-10T14:56:24;1.07;;;0.73;;
12910;SDS011;6523;49.758;6.120;2023-05-10T14:58:51;2.50;;;1.10;;
12910;SDS011;6523;49.758;6.120;2023-05-10T15:01:17;1.27;;;0.80;;
12910;SDS011;6523;49.758;6.120;2023-05-10T15:03:43;0.80;;;0.80;;
12910;SDS011;6523;49.758;6.120;2023-05-10T15:06:08;2.07;;;0.80;;
12910;SDS011;6523;49.758;6.120;2023-05-10T15:08:37;2.53;;;1.13;;
12910;SDS011;6523;49.758;6.120;2023-05-10T15:11:05;1.30;;;0.83;;
12910;SDS011;6523;49.758;6.120;2023-05-10T15:13:31;2.57;;;0.70;;
12910;SDS011;6523;49.758;6.120;2023-05-10T15:16:07;1.03;;;0.77;;
12910;SDS011;6523;49.758;6.120;2023-05-10T15:18:55;1.80;;;0.90;;
12910;SDS011;6523;49.758;6.120;2023-05-10T15:21:21;0.83;;;0.83;;
12910;SDS011;6523;49.758;6.120;2023-05-10T15:23:46;1.33;;;0.80;;
12910;SDS011;6523;49.758;6.120;2023-05-10T15:26:12;1.10;;;0.83;;
12910;SDS011;6523;49.758;6.120;2023-05-10T15:28:37;1.33;;;0.70;;
12910;SDS011;6523;49.758;6.120;2023-05-10T15:31:03;1.23;;;0.60;;
12910;SDS011;6523;49.758;6.120;2023-05-10T15:33:29;0.80;;;0.80;;
12910;SDS011;6523;49.758;6.120;2023-05-10T15:35:54;0.83;;;0.77;;